Portada
METAR-TAF:

METAR-TAF

Aeroports :

Nanquín, Xina

latitud: 32-00N, longitud: 118-48E, altitud: 12 m

Observació

L'informe es va fer fa 37 minuts, a les 19:00 UTC
Vent 6 kt del Est/Nord-Est
Temperatura 7°C
Humitat 93%
Pressió 1020 hPa
Visibilitat: 8000 m
Cel ennuvolat a una alçada de 1700 ft
Cel cobert a una alçada de 4000 ft

METAR: ZSNJ 291900Z 06003MPS 8000 BKN017 OVC040 07/06 Q1020 NOSIG

Hora: 03:37 (19:37 UTC)

Pronòstic

L'informe es va fer fa 4 hores i 33 minuts, a les 15:04 UTC
Pronòstic vàlid del 29 a les 18 UTC al 30 a les 18 UTC
Vent 8 kt del Est/Nord-Est
Visibilitat: 3000 m
Núvols disperses a una alçada de 1000 ft
Cel ennuvolat a una alçada de 3300 ft
pluja, boirina

TAF: ZSNJ 291504Z 2918/3018 07004MPS 3000 -RA BR SCT010 BKN033 TX12/3006Z TN04/2921Z

Observacions i pronòstics meteorològics de més de 4000 aeroports (METAR i TAF).

Les estacions disponibles són els punts grocs i vermells al mapa.

Posi el ratolí al punt desitjat per veure el nom de l'estació.

Feu clic per veure les observacions i els pronòstics meteorològics.

Per canviar el mapa: feu clic els botons verds amb una creu de color negre per apropar; al botó verd amb un guió per allunyar la imatge; o en les fletxes verdes per a mapes adjacents.


METAR-TAF: